sensor_id;sensor_type;location;lat;lon;timestamp;pressure;altitude;pressure_sealevel;temperature;humidity
64340;BME280;63709;53.258;-8.814;2022-12-18T00:01:39;101174.22;;;5.09;100.00
64340;BME280;63709;53.258;-8.814;2022-12-18T00:04:06;101168.22;;;5.06;100.00
64340;BME280;63709;53.258;-8.814;2022-12-18T00:06:35;101165.78;;;5.01;100.00
64340;BME280;63709;53.258;-8.814;2022-12-18T00:09:02;101162.06;;;5.05;100.00
64340;BME280;63709;53.258;-8.814;2022-12-18T00:11:30;101165.91;;;4.98;100.00
64340;BME280;63709;53.258;-8.814;2022-12-18T00:13:57;101169.34;;;5.00;100.00
64340;BME280;63709;53.258;-8.814;2022-12-18T00:16:25;101156.47;;;4.93;100.00
64340;BME280;63709;53.258;-8.814;2022-12-18T00:18:55;101153.03;;;4.91;100.00
64340;BME280;63709;53.258;-8.814;2022-12-18T00:21:21;101146.31;;;5.02;100.00
64340;BME280;63709;53.258;-8.814;2022-12-18T00:23:48;101139.47;;;4.98;100.00
64340;BME280;63709;53.258;-8.814;2022-12-18T00:26:16;101134.03;;;5.01;100.00
64340;BME280;63709;53.258;-8.814;2022-12-18T00:28:43;101115.72;;;4.97;100.00
64340;BME280;63709;53.258;-8.814;2022-12-18T00:31:12;101120.88;;;5.00;100.00
64340;BME280;63709;53.258;-8.814;2022-12-18T00:33:39;101127.81;;;5.02;100.00
64340;BME280;63709;53.258;-8.814;2022-12-18T00:36:12;101132.75;;;5.10;100.00
64340;BME280;63709;53.258;-8.814;2022-12-18T00:38:39;101118.31;;;4.98;100.00
64340;BME280;63709;53.258;-8.814;2022-12-18T00:41:07;101123.31;;;5.04;100.00
64340;BME280;63709;53.258;-8.814;2022-12-18T00:43:35;101114.13;;;5.12;100.00
64340;BME280;63709;53.258;-8.814;2022-12-18T00:46:02;101110.97;;;5.22;100.00
64340;BME280;63709;53.258;-8.814;2022-12-18T00:48:28;101124.72;;;5.30;100.00
64340;BME280;63709;53.258;-8.814;2022-12-18T00:50:54;101117.50;;;5.34;100.00
64340;BME280;63709;53.258;-8.814;2022-12-18T00:53:20;101109.56;;;5.34;100.00
64340;BME280;63709;53.258;-8.814;2022-12-18T00:55:46;101079.22;;;5.22;100.00
64340;BME280;63709;53.258;-8.814;2022-12-18T00:58:13;101090.22;;;5.32;100.00
64340;BME280;63709;53.258;-8.814;2022-12-18T01:00:40;101079.50;;;5.35;100.00
64340;BME280;63709;53.258;-8.814;2022-12-18T01:03:06;101075.44;;;5.28;100.00
64340;BME280;63709;53.258;-8.814;2022-12-18T01:05:32;101076.00;;;5.34;100.00
64340;BME280;63709;53.258;-8.814;2022-12-18T01:07:59;101085.22;;;5.26;100.00
64340;BME280;63709;53.258;-8.814;2022-12-18T01:10:25;101069.91;;;5.32;100.00
64340;BME280;63709;53.258;-8.814;2022-12-18T01:12:51;101063.78;;;5.32;100.00
64340;BME280;63709;53.258;-8.814;2022-12-18T01:15:19;101061.94;;;5.15;100.00
64340;BME280;63709;53.258;-8.814;2022-12-18T01:17:45;101067.50;;;5.28;100.00
64340;BME280;63709;53.258;-8.814;2022-12-18T01:20:12;101069.59;;;5.21;100.00
64340;BME280;63709;53.258;-8.814;2022-12-18T01:22:40;101065.00;;;5.25;100.00
64340;BME280;63709;53.258;-8.814;2022-12-18T01:25:07;101057.06;;;5.25;100.00
64340;BME280;63709;53.258;-8.814;2022-12-18T01:27:33;101047.75;;;5.35;100.00
64340;BME280;63709;53.258;-8.814;2022-12-18T01:29:59;101057.53;;;5.33;100.00
64340;BME280;63709;53.258;-8.814;2022-12-18T01:32:25;101022.50;;;5.28;100.00
64340;BME280;63709;53.258;-8.814;2022-12-18T01:34:52;101030.22;;;5.32;100.00
64340;BME280;63709;53.258;-8.814;2022-12-18T01:37:17;101022.97;;;5.36;100.00
64340;BME280;63709;53.258;-8.814;2022-12-18T01:39:44;101018.69;;;5.33;100.00
64340;BME280;63709;53.258;-8.814;2022-12-18T01:42:15;101028.13;;;5.39;100.00
64340;BME280;63709;53.258;-8.814;2022-12-18T01:49:55;101020.66;;;5.47;100.00
64340;BME280;63709;53.258;-8.814;2022-12-18T01:52:22;101010.84;;;5.49;100.00
64340;BME280;63709;53.258;-8.814;2022-12-18T01:54:51;100993.31;;;5.47;100.00
64340;BME280;63709;53.258;-8.814;2022-12-18T01:57:18;100971.59;;;5.40;100.00
64340;BME280;63709;53.258;-8.814;2022-12-18T01:59:46;100983.34;;;5.52;100.00
64340;BME280;63709;53.258;-8.814;2022-12-18T02:02:15;100970.81;;;5.55;100.00
64340;BME280;63709;53.258;-8.814;2022-12-18T02:04:41;100963.97;;;5.51;100.00
64340;BME280;63709;53.258;-8.814;2022-12-18T02:07:37;100962.81;;;5.57;100.00
64340;BME280;63709;53.258;-8.814;2022-12-18T02:10:12;100961.00;;;5.57;100.00
64340;BME280;63709;53.258;-8.814;2022-12-18T02:15:33;100949.63;;;5.55;100.00
64340;BME280;63709;53.258;-8.814;2022-12-18T02:18:11;100949.03;;;5.50;100.00
64340;BME280;63709;53.258;-8.814;2022-12-18T02:20:59;100936.50;;;5.54;100.00
64340;BME280;63709;53.258;-8.814;2022-12-18T02:26:37;100919.81;;;5.52;100.00
64340;BME280;63709;53.258;-8.814;2022-12-18T02:29:08;100928.53;;;5.54;100.00
64340;BME280;63709;53.258;-8.814;2022-12-18T02:31:40;100914.50;;;5.52;100.00
64340;BME280;63709;53.258;-8.814;2022-12-18T02:34:09;100915.00;;;5.60;100.00
64340;BME280;63709;53.258;-8.814;2022-12-18T02:36:39;100912.84;;;5.67;100.00
64340;BME280;63709;53.258;-8.814;2022-12-18T02:39:10;100911.75;;;5.71;100.00
64340;BME280;63709;53.258;-8.814;2022-12-18T02:41:37;100913.47;;;5.72;100.00
64340;BME280;63709;53.258;-8.814;2022-12-18T02:44:10;100908.94;;;5.74;100.00
64340;BME280;63709;53.258;-8.814;2022-12-18T02:46:46;100918.28;;;5.81;100.00
64340;BME280;63709;53.258;-8.814;2022-12-18T02:52:01;100884.00;;;5.78;100.00
64340;BME280;63709;53.258;-8.814;2022-12-18T03:00:14;100870.75;;;5.95;100.00
64340;BME280;63709;53.258;-8.814;2022-12-18T03:03:00;100882.81;;;6.01;100.00
64340;BME280;63709;53.258;-8.814;2022-12-18T03:05:40;100859.38;;;6.09;100.00
64340;BME280;63709;53.258;-8.814;2022-12-18T03:08:22;100862.56;;;6.16;100.00
64340;BME280;63709;53.258;-8.814;2022-12-18T03:10:58;100861.25;;;6.23;100.00
64340;BME280;63709;53.258;-8.814;2022-12-18T03:13:54;100852.69;;;6.34;100.00
64340;BME280;63709;53.258;-8.814;2022-12-18T03:16:30;100840.03;;;6.39;100.00
64340;BME280;63709;53.258;-8.814;2022-12-18T03:19:05;100825.75;;;6.41;100.00
64340;BME280;63709;53.258;-8.814;2022-12-18T03:21:38;100831.38;;;6.51;100.00
64340;BME280;63709;53.258;-8.814;2022-12-18T03:24:07;100809.50;;;6.47;100.00
64340;BME280;63709;53.258;-8.814;2022-12-18T03:26:35;100797.41;;;6.58;100.00
64340;BME280;63709;53.258;-8.814;2022-12-18T03:29:07;100799.50;;;6.67;100.00
64340;BME280;63709;53.258;-8.814;2022-12-18T03:31:37;100789.00;;;6.65;100.00
64340;BME280;63709;53.258;-8.814;2022-12-18T03:34:12;100774.78;;;6.66;100.00
64340;BME280;63709;53.258;-8.814;2022-12-18T03:36:39;100774.25;;;6.75;100.00
64340;BME280;63709;53.258;-8.814;2022-12-18T03:39:07;100765.53;;;6.73;100.00
64340;BME280;63709;53.258;-8.814;2022-12-18T03:41:56;100761.91;;;6.74;100.00
64340;BME280;63709;53.258;-8.814;2022-12-18T03:44:57;100755.59;;;6.77;100.00
64340;BME280;63709;53.258;-8.814;2022-12-18T03:50:38;100753.88;;;6.76;100.00
64340;BME280;63709;53.258;-8.814;2022-12-18T03:53:19;100735.59;;;6.71;100.00
64340;BME280;63709;53.258;-8.814;2022-12-18T03:55:50;100743.28;;;6.76;100.00
64340;BME280;63709;53.258;-8.814;2022-12-18T03:58:22;100731.16;;;6.72;100.00
64340;BME280;63709;53.258;-8.814;2022-12-18T04:00:49;100716.94;;;6.73;100.00
64340;BME280;63709;53.258;-8.814;2022-12-18T04:03:18;100711.63;;;6.73;100.00
64340;BME280;63709;53.258;-8.814;2022-12-18T04:05:48;100693.34;;;6.68;100.00
64340;BME280;63709;53.258;-8.814;2022-12-18T04:08:17;100691.53;;;6.69;100.00
64340;BME280;63709;53.258;-8.814;2022-12-18T04:10:43;100681.59;;;6.72;100.00
64340;BME280;63709;53.258;-8.814;2022-12-18T04:13:09;100650.81;;;6.55;100.00
64340;BME280;63709;53.258;-8.814;2022-12-18T04:15:36;100671.00;;;6.72;100.00
64340;BME280;63709;53.258;-8.814;2022-12-18T04:18:03;100662.25;;;6.70;100.00
64340;BME280;63709;53.258;-8.814;2022-12-18T04:20:29;100666.34;;;6.76;100.00
64340;BME280;63709;53.258;-8.814;2022-12-18T04:22:55;100651.47;;;6.73;100.00
64340;BME280;63709;53.258;-8.814;2022-12-18T04:25:21;100647.78;;;6.76;100.00
64340;BME280;63709;53.258;-8.814;2022-12-18T04:27:48;100638.88;;;6.77;100.00
64340;BME280;63709;53.258;-8.814;2022-12-18T04:30:13;100627.97;;;6.82;100.00
64340;BME280;63709;53.258;-8.814;2022-12-18T04:32:39;100631.47;;;6.82;100.00
64340;BME280;63709;53.258;-8.814;2022-12-18T04:35:06;100622.97;;;6.77;100.00
64340;BME280;63709;53.258;-8.814;2022-12-18T04:37:35;100620.88;;;6.82;100.00
64340;BME280;63709;53.258;-8.814;2022-12-18T04:40:01;100617.47;;;6.80;100.00
64340;BME280;63709;53.258;-8.814;2022-12-18T04:42:27;100613.00;;;6.81;100.00
64340;BME280;63709;53.258;-8.814;2022-12-18T04:44:53;100606.00;;;6.79;100.00
64340;BME280;63709;53.258;-8.814;2022-12-18T04:47:18;100598.72;;;6.83;100.00
64340;BME280;63709;53.258;-8.814;2022-12-18T04:49:44;100575.50;;;6.87;100.00
64340;BME280;63709;53.258;-8.814;2022-12-18T04:52:09;100572.91;;;6.99;100.00
64340;BME280;63709;53.258;-8.814;2022-12-18T04:54:36;100546.47;;;6.98;100.00
64340;BME280;63709;53.258;-8.814;2022-12-18T04:57:02;100557.25;;;7.09;100.00
64340;BME280;63709;53.258;-8.814;2022-12-18T04:59:27;100541.03;;;7.14;100.00
64340;BME280;63709;53.258;-8.814;2022-12-18T05:01:54;100536.38;;;7.17;100.00
64340;BME280;63709;53.258;-8.814;2022-12-18T05:04:19;100525.09;;;7.14;100.00
64340;BME280;63709;53.258;-8.814;2022-12-18T05:06:47;100502.50;;;7.21;100.00
64340;BME280;63709;53.258;-8.814;2022-12-18T05:09:12;100498.16;;;7.20;100.00
64340;BME280;63709;53.258;-8.814;2022-12-18T05:11:38;100461.00;;;7.20;100.00
64340;BME280;63709;53.258;-8.814;2022-12-18T05:14:03;100474.06;;;7.23;100.00
64340;BME280;63709;53.258;-8.814;2022-12-18T05:16:29;100454.34;;;7.27;100.00
64340;BME280;63709;53.258;-8.814;2022-12-18T05:18:54;100448.06;;;7.28;100.00
64340;BME280;63709;53.258;-8.814;2022-12-18T05:21:26;100423.84;;;7.20;100.00
64340;BME280;63709;53.258;-8.814;2022-12-18T05:23:51;100423.13;;;7.31;100.00
64340;BME280;63709;53.258;-8.814;2022-12-18T05:26:18;100410.72;;;7.31;100.00
64340;BME280;63709;53.258;-8.814;2022-12-18T05:28:44;100410.72;;;7.31;100.00
64340;BME280;63709;53.258;-8.814;2022-12-18T05:31:11;100392.97;;;7.32;100.00
64340;BME280;63709;53.258;-8.814;2022-12-18T05:33:37;100383.41;;;7.29;100.00
64340;BME280;63709;53.258;-8.814;2022-12-18T05:36:06;100376.41;;;7.28;100.00
64340;BME280;63709;53.258;-8.814;2022-12-18T05:38:36;100360.88;;;7.22;100.00
64340;BME280;63709;53.258;-8.814;2022-12-18T05:41:04;100361.84;;;7.34;100.00
64340;BME280;63709;53.258;-8.814;2022-12-18T05:43:31;100361.00;;;7.33;100.00
64340;BME280;63709;53.258;-8.814;2022-12-18T05:46:03;100369.09;;;7.32;100.00
64340;BME280;63709;53.258;-8.814;2022-12-18T05:48:29;100360.06;;;7.34;100.00
64340;BME280;63709;53.258;-8.814;2022-12-18T05:50:54;100356.53;;;7.34;100.00
64340;BME280;63709;53.258;-8.814;2022-12-18T05:53:21;100343.59;;;7.29;100.00
64340;BME280;63709;53.258;-8.814;2022-12-18T05:55:47;100347.00;;;7.31;100.00
64340;BME280;63709;53.258;-8.814;2022-12-18T05:58:14;100324.91;;;7.18;100.00
64340;BME280;63709;53.258;-8.814;2022-12-18T06:00:43;100326.38;;;7.22;100.00
64340;BME280;63709;53.258;-8.814;2022-12-18T06:03:10;100318.63;;;7.19;100.00
64340;BME280;63709;53.258;-8.814;2022-12-18T06:05:37;100319.19;;;7.24;100.00
64340;BME280;63709;53.258;-8.814;2022-12-18T06:08:03;100310.25;;;7.25;100.00
64340;BME280;63709;53.258;-8.814;2022-12-18T06:10:29;100296.56;;;7.18;100.00
64340;BME280;63709;53.258;-8.814;2022-12-18T06:12:54;100290.81;;;7.24;100.00
64340;BME280;63709;53.258;-8.814;2022-12-18T06:15:22;100285.22;;;7.16;100.00
64340;BME280;63709;53.258;-8.814;2022-12-18T06:17:49;100276.50;;;7.14;100.00
64340;BME280;63709;53.258;-8.814;2022-12-18T06:20:14;100267.38;;;7.06;100.00
64340;BME280;63709;53.258;-8.814;2022-12-18T06:22:43;100241.16;;;7.01;100.00
64340;BME280;63709;53.258;-8.814;2022-12-18T06:25:09;100258.66;;;7.16;100.00
64340;BME280;63709;53.258;-8.814;2022-12-18T06:27:34;100238.16;;;7.18;100.00
64340;BME280;63709;53.258;-8.814;2022-12-18T06:30:00;100232.78;;;7.20;100.00
64340;BME280;63709;53.258;-8.814;2022-12-18T06:32:27;100231.94;;;7.19;100.00
64340;BME280;63709;53.258;-8.814;2022-12-18T06:34:53;100226.50;;;7.21;100.00
64340;BME280;63709;53.258;-8.814;2022-12-18T06:37:19;100211.97;;;7.14;100.00
64340;BME280;63709;53.258;-8.814;2022-12-18T06:39:44;100212.38;;;7.20;100.00
64340;BME280;63709;53.258;-8.814;2022-12-18T06:42:10;100195.63;;;7.20;100.00
64340;BME280;63709;53.258;-8.814;2022-12-18T06:44:38;100185.72;;;7.22;100.00
64340;BME280;63709;53.258;-8.814;2022-12-18T06:47:05;100186.47;;;7.24;100.00
64340;BME280;63709;53.258;-8.814;2022-12-18T06:49:32;100167.91;;;7.11;100.00
64340;BME280;63709;53.258;-8.814;2022-12-18T06:51:59;100166.84;;;7.14;100.00
64340;BME280;63709;53.258;-8.814;2022-12-18T06:54:27;100166.72;;;7.15;100.00
64340;BME280;63709;53.258;-8.814;2022-12-18T06:56:52;100140.44;;;7.12;100.00
64340;BME280;63709;53.258;-8.814;2022-12-18T06:59:19;100139.13;;;7.18;100.00
64340;BME280;63709;53.258;-8.814;2022-12-18T07:01:44;100143.16;;;7.23;100.00
64340;BME280;63709;53.258;-8.814;2022-12-18T07:04:15;100113.00;;;7.24;100.00
64340;BME280;63709;53.258;-8.814;2022-12-18T07:06:42;100111.94;;;7.27;100.00
64340;BME280;63709;53.258;-8.814;2022-12-18T07:09:07;100111.94;;;7.27;100.00
64340;BME280;63709;53.258;-8.814;2022-12-18T07:11:34;100083.53;;;7.16;100.00
64340;BME280;63709;53.258;-8.814;2022-12-18T07:14:00;100094.09;;;7.29;100.00
64340;BME280;63709;53.258;-8.814;2022-12-18T07:16:26;100094.72;;;7.33;100.00
64340;BME280;63709;53.258;-8.814;2022-12-18T07:18:54;100084.09;;;7.33;100.00
64340;BME280;63709;53.258;-8.814;2022-12-18T07:21:21;100075.69;;;7.39;100.00
64340;BME280;63709;53.258;-8.814;2022-12-18T07:23:49;100075.91;;;7.36;100.00
64340;BME280;63709;53.258;-8.814;2022-12-18T07:26:18;100080.31;;;7.48;100.00
64340;BME280;63709;53.258;-8.814;2022-12-18T07:28:45;100064.38;;;7.48;100.00
64340;BME280;63709;53.258;-8.814;2022-12-18T07:31:14;100087.38;;;7.60;100.00
64340;BME280;63709;53.258;-8.814;2022-12-18T07:33:40;100075.44;;;7.66;100.00
64340;BME280;63709;53.258;-8.814;2022-12-18T07:36:07;100069.16;;;7.67;100.00
64340;BME280;63709;53.258;-8.814;2022-12-18T07:38:34;100056.16;;;7.75;100.00
64340;BME280;63709;53.258;-8.814;2022-12-18T07:41:02;100052.41;;;7.78;100.00
64340;BME280;63709;53.258;-8.814;2022-12-18T07:43:28;100047.97;;;7.89;100.00
64340;BME280;63709;53.258;-8.814;2022-12-18T07:45:53;100038.09;;;7.91;100.00
64340;BME280;63709;53.258;-8.814;2022-12-18T07:48:19;100023.34;;;7.87;100.00
64340;BME280;63709;53.258;-8.814;2022-12-18T07:50:45;100024.56;;;7.94;100.00
64340;BME280;63709;53.258;-8.814;2022-12-18T07:53:11;100019.72;;;7.99;100.00
64340;BME280;63709;53.258;-8.814;2022-12-18T07:55:38;100022.91;;;8.05;100.00
64340;BME280;63709;53.258;-8.814;2022-12-18T07:58:05;100021.81;;;8.18;100.00
64340;BME280;63709;53.258;-8.814;2022-12-18T08:00:31;100015.19;;;8.24;100.00
64340;BME280;63709;53.258;-8.814;2022-12-18T08:02:56;100012.28;;;8.27;100.00
64340;BME280;63709;53.258;-8.814;2022-12-18T08:05:22;100003.47;;;8.38;100.00
64340;BME280;63709;53.258;-8.814;2022-12-18T08:07:49;99988.88;;;8.43;100.00
64340;BME280;63709;53.258;-8.814;2022-12-18T08:10:14;99961.41;;;8.32;100.00
64340;BME280;63709;53.258;-8.814;2022-12-18T08:12:42;99979.44;;;8.51;100.00
64340;BME280;63709;53.258;-8.814;2022-12-18T08:15:08;99963.47;;;8.62;100.00
64340;BME280;63709;53.258;-8.814;2022-12-18T08:17:34;99944.00;;;8.61;100.00
64340;BME280;63709;53.258;-8.814;2022-12-18T08:20:00;99943.13;;;8.72;100.00
64340;BME280;63709;53.258;-8.814;2022-12-18T08:22:26;99949.66;;;8.79;100.00
64340;BME280;63709;53.258;-8.814;2022-12-18T08:24:52;99943.94;;;8.84;100.00
64340;BME280;63709;53.258;-8.814;2022-12-18T08:27:19;99947.44;;;8.84;100.00
64340;BME280;63709;53.258;-8.814;2022-12-18T08:29:45;99954.94;;;8.90;100.00
64340;BME280;63709;53.258;-8.814;2022-12-18T08:32:12;99939.91;;;8.89;100.00
64340;BME280;63709;53.258;-8.814;2022-12-18T08:34:40;99928.56;;;8.87;100.00
64340;BME280;63709;53.258;-8.814;2022-12-18T08:37:06;99939.88;;;9.01;100.00
64340;BME280;63709;53.258;-8.814;2022-12-18T08:39:31;99948.59;;;9.03;100.00
64340;BME280;63709;53.258;-8.814;2022-12-18T08:41:57;99937.81;;;9.04;100.00
64340;BME280;63709;53.258;-8.814;2022-12-18T08:44:41;99920.41;;;9.00;100.00
64340;BME280;63709;53.258;-8.814;2022-12-18T08:47:07;99931.25;;;9.08;100.00
64340;BME280;63709;53.258;-8.814;2022-12-18T08:49:33;99933.16;;;9.17;100.00
64340;BME280;63709;53.258;-8.814;2022-12-18T08:52:00;99930.25;;;9.20;100.00
64340;BME280;63709;53.258;-8.814;2022-12-18T08:54:26;99913.53;;;9.18;100.00
64340;BME280;63709;53.258;-8.814;2022-12-18T08:56:53;99908.81;;;9.22;100.00
64340;BME280;63709;53.258;-8.814;2022-12-18T08:59:19;99916.28;;;9.28;100.00
64340;BME280;63709;53.258;-8.814;2022-12-18T09:01:46;99907.81;;;9.23;100.00
64340;BME280;63709;53.258;-8.814;2022-12-18T09:04:13;99901.31;;;9.27;100.00
64340;BME280;63709;53.258;-8.814;2022-12-18T09:06:42;99902.00;;;9.29;100.00
64340;BME280;63709;53.258;-8.814;2022-12-18T09:09:09;99903.81;;;9.29;100.00
64340;BME280;63709;53.258;-8.814;2022-12-18T09:11:36;99896.66;;;9.29;100.00
64340;BME280;63709;53.258;-8.814;2022-12-18T09:14:01;99907.06;;;9.32;100.00
64340;BME280;63709;53.258;-8.814;2022-12-18T09:16:28;99904.16;;;9.35;100.00
64340;BME280;63709;53.258;-8.814;2022-12-18T09:18:55;99904.75;;;9.39;100.00
64340;BME280;63709;53.258;-8.814;2022-12-18T09:21:26;99882.44;;;9.40;100.00
64340;BME280;63709;53.258;-8.814;2022-12-18T09:23:55;99897.34;;;9.42;100.00
64340;BME280;63709;53.258;-8.814;2022-12-18T09:26:23;99891.19;;;9.52;100.00
64340;BME280;63709;53.258;-8.814;2022-12-18T09:28:49;99882.50;;;9.50;100.00
64340;BME280;63709;53.258;-8.814;2022-12-18T09:31:16;99880.88;;;9.58;100.00
64340;BME280;63709;53.258;-8.814;2022-12-18T09:33:43;99876.81;;;9.64;100.00
64340;BME280;63709;53.258;-8.814;2022-12-18T09:36:14;99874.16;;;9.64;100.00
64340;BME280;63709;53.258;-8.814;2022-12-18T09:38:40;99876.56;;;9.67;100.00
64340;BME280;63709;53.258;-8.814;2022-12-18T09:43:57;99841.63;;;9.60;100.00
64340;BME280;63709;53.258;-8.814;2022-12-18T09:46:35;99847.13;;;9.68;100.00
64340;BME280;63709;53.258;-8.814;2022-12-18T09:49:06;99852.63;;;9.77;100.00
64340;BME280;63709;53.258;-8.814;2022-12-18T09:51:40;99843.66;;;9.78;100.00
64340;BME280;63709;53.258;-8.814;2022-12-18T09:54:43;99826.16;;;9.85;100.00
64340;BME280;63709;53.258;-8.814;2022-12-18T09:57:18;99817.63;;;9.91;100.00
64340;BME280;63709;53.258;-8.814;2022-12-18T10:00:21;99795.59;;;9.89;100.00
64340;BME280;63709;53.258;-8.814;2022-12-18T10:02:49;99791.94;;;9.90;100.00
64340;BME280;63709;53.258;-8.814;2022-12-18T10:05:28;99795.72;;;9.87;100.00
64340;BME280;63709;53.258;-8.814;2022-12-18T10:08:03;99776.50;;;9.93;100.00
64340;BME280;63709;53.258;-8.814;2022-12-18T10:10:46;99793.94;;;9.98;100.00
64340;BME280;63709;53.258;-8.814;2022-12-18T10:19:07;99769.09;;;9.97;100.00
64340;BME280;63709;53.258;-8.814;2022-12-18T10:21:59;99730.78;;;9.88;100.00
64340;BME280;63709;53.258;-8.814;2022-12-18T10:26:56;99743.44;;;10.06;100.00
64340;BME280;63709;53.258;-8.814;2022-12-18T10:29:26;99740.78;;;10.06;100.00
64340;BME280;63709;53.258;-8.814;2022-12-18T10:31:52;99740.09;;;10.13;100.00
64340;BME280;63709;53.258;-8.814;2022-12-18T10:34:18;99751.75;;;10.12;100.00
64340;BME280;63709;53.258;-8.814;2022-12-18T10:36:44;99732.50;;;10.09;100.00
64340;BME280;63709;53.258;-8.814;2022-12-18T10:39:21;99730.25;;;10.14;100.00
64340;BME280;63709;53.258;-8.814;2022-12-18T10:42:09;99732.22;;;10.22;100.00
64340;BME280;63709;53.258;-8.814;2022-12-18T10:44:40;99716.38;;;10.20;100.00
64340;BME280;63709;53.258;-8.814;2022-12-18T10:47:12;99721.84;;;10.18;100.00
64340;BME280;63709;53.258;-8.814;2022-12-18T10:49:47;99695.47;;;10.06;100.00
64340;BME280;63709;53.258;-8.814;2022-12-18T10:52:21;99713.72;;;10.30;100.00
64340;BME280;63709;53.258;-8.814;2022-12-18T10:54:54;99706.88;;;10.27;100.00
64340;BME280;63709;53.258;-8.814;2022-12-18T10:57:31;99706.72;;;10.38;100.00
64340;BME280;63709;53.258;-8.814;2022-12-18T10:59:59;99700.84;;;10.35;100.00
64340;BME280;63709;53.258;-8.814;2022-12-18T11:02:37;99699.00;;;10.35;100.00
64340;BME280;63709;53.258;-8.814;2022-12-18T11:05:31;99693.50;;;10.37;100.00
64340;BME280;63709;53.258;-8.814;2022-12-18T11:07:59;99687.47;;;10.45;100.00
64340;BME280;63709;53.258;-8.814;2022-12-18T11:10:32;99709.50;;;10.56;100.00
64340;BME280;63709;53.258;-8.814;2022-12-18T11:13:20;99700.09;;;10.62;100.00
64340;BME280;63709;53.258;-8.814;2022-12-18T11:15:47;99689.97;;;10.56;100.00
64340;BME280;63709;53.258;-8.814;2022-12-18T11:18:55;99687.16;;;10.67;100.00
64340;BME280;63709;53.258;-8.814;2022-12-18T11:21:11;99672.13;;;10.66;100.00
64340;BME280;63709;53.258;-8.814;2022-12-18T11:23:50;99677.13;;;10.79;100.00
64340;BME280;63709;53.258;-8.814;2022-12-18T11:26:19;99679.25;;;10.75;100.00
64340;BME280;63709;53.258;-8.814;2022-12-18T11:28:52;99673.22;;;10.83;100.00
64340;BME280;63709;53.258;-8.814;2022-12-18T11:31:32;99666.06;;;10.83;100.00
64340;BME280;63709;53.258;-8.814;2022-12-18T11:34:00;99662.66;;;10.91;100.00
64340;BME280;63709;53.258;-8.814;2022-12-18T11:36:32;99657.31;;;10.91;100.00
64340;BME280;63709;53.258;-8.814;2022-12-18T11:39:07;99661.22;;;10.97;100.00
64340;BME280;63709;53.258;-8.814;2022-12-18T11:41:43;99647.59;;;10.90;100.00
64340;BME280;63709;53.258;-8.814;2022-12-18T11:49:51;99634.09;;;11.01;100.00
64340;BME280;63709;53.258;-8.814;2022-12-18T11:52:38;99624.00;;;10.95;100.00
64340;BME280;63709;53.258;-8.814;2022-12-18T11:55:20;99625.47;;;11.07;100.00
64340;BME280;63709;53.258;-8.814;2022-12-18T11:57:58;99625.66;;;11.06;100.00
64340;BME280;63709;53.258;-8.814;2022-12-18T12:00:26;99620.31;;;11.06;100.00
64340;BME280;63709;53.258;-8.814;2022-12-18T12:05:36;99622.34;;;11.12;100.00
64340;BME280;63709;53.258;-8.814;2022-12-18T12:13:38;99599.41;;;11.19;100.00
64340;BME280;63709;53.258;-8.814;2022-12-18T12:19:02;99578.59;;;11.23;100.00
64340;BME280;63709;53.258;-8.814;2022-12-18T12:21:40;99568.91;;;11.22;100.00
64340;BME280;63709;53.258;-8.814;2022-12-18T12:29:46;99557.75;;;11.26;100.00
64340;BME280;63709;53.258;-8.814;2022-12-18T12:38:06;99543.13;;;11.30;100.00
64340;BME280;63709;53.258;-8.814;2022-12-18T12:40:37;99541.81;;;11.34;100.00
64340;BME280;63709;53.258;-8.814;2022-12-18T12:51:32;99556.72;;;11.55;100.00
64340;BME280;63709;53.258;-8.814;2022-12-18T12:54:00;99537.50;;;11.51;100.00
64340;BME280;63709;53.258;-8.814;2022-12-18T12:56:39;99542.28;;;11.66;100.00
64340;BME280;63709;53.258;-8.814;2022-12-18T13:01:48;99540.81;;;11.71;100.00
64340;BME280;63709;53.258;-8.814;2022-12-18T13:04:23;99532.66;;;11.73;100.00
64340;BME280;63709;53.258;-8.814;2022-12-18T13:07:16;99526.69;;;11.79;100.00
64340;BME280;63709;53.258;-8.814;2022-12-18T13:13:06;99517.25;;;11.84;100.00
64340;BME280;63709;53.258;-8.814;2022-12-18T13:15:42;99518.94;;;11.85;100.00
64340;BME280;63709;53.258;-8.814;2022-12-18T13:20:40;99510.28;;;11.92;100.00
64340;BME280;63709;53.258;-8.814;2022-12-18T13:34:24;99479.94;;;12.01;100.00
64340;BME280;63709;53.258;-8.814;2022-12-18T13:39:57;99460.59;;;12.07;100.00
64340;BME280;63709;53.258;-8.814;2022-12-18T13:45:35;99454.41;;;12.06;100.00
64340;BME280;63709;53.258;-8.814;2022-12-18T13:48:03;99457.75;;;12.08;100.00
64340;BME280;63709;53.258;-8.814;2022-12-18T13:50:31;99439.28;;;11.97;100.00
64340;BME280;63709;53.258;-8.814;2022-12-18T13:52:58;99434.16;;;12.04;100.00
64340;BME280;63709;53.258;-8.814;2022-12-18T13:55:25;99433.84;;;12.07;100.00
64340;BME280;63709;53.258;-8.814;2022-12-18T13:58:03;99429.19;;;12.09;100.00
64340;BME280;63709;53.258;-8.814;2022-12-18T14:00:31;99423.19;;;12.15;100.00
64340;BME280;63709;53.258;-8.814;2022-12-18T14:02:57;99398.91;;;12.08;100.00
64340;BME280;63709;53.258;-8.814;2022-12-18T14:05:36;99403.81;;;12.21;100.00
64340;BME280;63709;53.258;-8.814;2022-12-18T14:08:10;99392.16;;;12.30;100.00
64340;BME280;63709;53.258;-8.814;2022-12-18T14:10:46;99384.00;;;12.40;100.00
64340;BME280;63709;53.258;-8.814;2022-12-18T14:13:19;99375.16;;;12.48;100.00
64340;BME280;63709;53.258;-8.814;2022-12-18T14:15:48;99369.81;;;12.56;100.00
64340;BME280;63709;53.258;-8.814;2022-12-18T14:18:33;99368.34;;;12.70;100.00
64340;BME280;63709;53.258;-8.814;2022-12-18T14:21:03;99363.03;;;12.94;100.00
64340;BME280;63709;53.258;-8.814;2022-12-18T14:25:58;99354.84;;;13.37;100.00
64340;BME280;63709;53.258;-8.814;2022-12-18T14:28:25;99360.88;;;13.47;100.00
64340;BME280;63709;53.258;-8.814;2022-12-18T14:30:52;99371.06;;;13.60;100.00
64340;BME280;63709;53.258;-8.814;2022-12-18T14:33:26;99356.47;;;13.70;100.00